sensor_id;sensor_type;location;lat;lon;timestamp;temperature;humidity
34147;DHT22;20423;49.448;9.056;2023-09-12T00:02:05;17.40;99.90
34147;DHT22;20423;49.448;9.056;2023-09-12T00:04:30;17.40;99.90
34147;DHT22;20423;49.448;9.056;2023-09-12T00:06:56;17.30;99.90
34147;DHT22;20423;49.448;9.056;2023-09-12T00:09:22;17.30;99.90
34147;DHT22;20423;49.448;9.056;2023-09-12T00:11:48;17.20;99.90
34147;DHT22;20423;49.448;9.056;2023-09-12T00:14:18;17.10;99.90
34147;DHT22;20423;49.448;9.056;2023-09-12T00:16:49;17.00;99.90
34147;DHT22;20423;49.448;9.056;2023-09-12T00:19:16;16.90;99.90
34147;DHT22;20423;49.448;9.056;2023-09-12T00:21:42;16.80;99.90
34147;DHT22;20423;49.448;9.056;2023-09-12T00:24:08;16.70;99.90
34147;DHT22;20423;49.448;9.056;2023-09-12T00:26:33;16.70;99.90
34147;DHT22;20423;49.448;9.056;2023-09-12T00:28:59;16.70;99.90
34147;DHT22;20423;49.448;9.056;2023-09-12T00:34:28;16.70;99.90
34147;DHT22;20423;49.448;9.056;2023-09-12T00:36:54;16.60;99.90
34147;DHT22;20423;49.448;9.056;2023-09-12T00:39:20;16.60;99.90
34147;DHT22;20423;49.448;9.056;2023-09-12T00:41:45;16.60;99.90
34147;DHT22;20423;49.448;9.056;2023-09-12T00:44:11;16.40;99.90
34147;DHT22;20423;49.448;9.056;2023-09-12T00:46:38;16.30;99.90
34147;DHT22;20423;49.448;9.056;2023-09-12T00:49:06;16.30;99.90
34147;DHT22;20423;49.448;9.056;2023-09-12T00:51:34;16.20;99.90
34147;DHT22;20423;49.448;9.056;2023-09-12T00:54:00;16.10;99.90
34147;DHT22;20423;49.448;9.056;2023-09-12T00:59:36;16.10;99.90
34147;DHT22;20423;49.448;9.056;2023-09-12T01:02:02;16.10;99.90
34147;DHT22;20423;49.448;9.056;2023-09-12T01:04:29;16.10;99.90
34147;DHT22;20423;49.448;9.056;2023-09-12T01:06:54;16.10;99.90
34147;DHT22;20423;49.448;9.056;2023-09-12T01:09:20;16.10;99.90
34147;DHT22;20423;49.448;9.056;2023-09-12T01:11:46;16.00;99.90
34147;DHT22;20423;49.448;9.056;2023-09-12T01:14:12;16.00;99.90
34147;DHT22;20423;49.448;9.056;2023-09-12T01:16:37;16.00;99.90
34147;DHT22;20423;49.448;9.056;2023-09-12T01:19:04;16.00;99.90
34147;DHT22;20423;49.448;9.056;2023-09-12T01:27:38;15.80;99.90
34147;DHT22;20423;49.448;9.056;2023-09-12T01:30:05;15.80;99.90
34147;DHT22;20423;49.448;9.056;2023-09-12T01:32:33;15.70;99.90
34147;DHT22;20423;49.448;9.056;2023-09-12T01:34:59;15.60;99.90
34147;DHT22;20423;49.448;9.056;2023-09-12T01:37:25;15.60;99.90
34147;DHT22;20423;49.448;9.056;2023-09-12T01:39:52;15.50;99.90
34147;DHT22;20423;49.448;9.056;2023-09-12T01:42:21;15.50;99.90
34147;DHT22;20423;49.448;9.056;2023-09-12T01:44:50;15.40;99.90
34147;DHT22;20423;49.448;9.056;2023-09-12T01:47:17;15.20;99.90
34147;DHT22;20423;49.448;9.056;2023-09-12T01:49:47;15.20;99.90
34147;DHT22;20423;49.448;9.056;2023-09-12T01:52:14;15.10;99.90
34147;DHT22;20423;49.448;9.056;2023-09-12T01:54:41;15.00;99.90
34147;DHT22;20423;49.448;9.056;2023-09-12T01:57:08;15.00;99.90
34147;DHT22;20423;49.448;9.056;2023-09-12T01:59:34;15.00;99.90
34147;DHT22;20423;49.448;9.056;2023-09-12T02:02:00;15.00;99.90
34147;DHT22;20423;49.448;9.056;2023-09-12T02:04:25;14.90;99.90
34147;DHT22;20423;49.448;9.056;2023-09-12T02:06:51;14.90;99.90
34147;DHT22;20423;49.448;9.056;2023-09-12T02:09:17;14.90;99.90
34147;DHT22;20423;49.448;9.056;2023-09-12T02:11:42;15.00;99.90
34147;DHT22;20423;49.448;9.056;2023-09-12T02:14:08;15.00;99.90
34147;DHT22;20423;49.448;9.056;2023-09-12T02:16:36;15.00;99.90
34147;DHT22;20423;49.448;9.056;2023-09-12T02:19:03;15.00;99.90
34147;DHT22;20423;49.448;9.056;2023-09-12T02:21:50;15.00;99.90
34147;DHT22;20423;49.448;9.056;2023-09-12T02:24:15;14.90;99.90
34147;DHT22;20423;49.448;9.056;2023-09-12T02:26:43;14.90;99.90
34147;DHT22;20423;49.448;9.056;2023-09-12T02:29:09;14.90;99.90
34147;DHT22;20423;49.448;9.056;2023-09-12T02:31:35;14.90;99.90
34147;DHT22;20423;49.448;9.056;2023-09-12T02:34:01;15.00;99.90
34147;DHT22;20423;49.448;9.056;2023-09-12T02:36:28;15.00;99.90
34147;DHT22;20423;49.448;9.056;2023-09-12T02:38:54;15.10;99.90
34147;DHT22;20423;49.448;9.056;2023-09-12T02:41:19;15.10;99.90
34147;DHT22;20423;49.448;9.056;2023-09-12T02:43:45;15.10;99.90
34147;DHT22;20423;49.448;9.056;2023-09-12T02:46:11;15.10;99.90
34147;DHT22;20423;49.448;9.056;2023-09-12T02:48:36;15.10;99.90
34147;DHT22;20423;49.448;9.056;2023-09-12T02:51:02;15.10;99.90
34147;DHT22;20423;49.448;9.056;2023-09-12T02:53:28;15.10;99.90
34147;DHT22;20423;49.448;9.056;2023-09-12T02:55:53;15.20;99.90
34147;DHT22;20423;49.448;9.056;2023-09-12T02:58:20;15.20;99.90
34147;DHT22;20423;49.448;9.056;2023-09-12T03:00:46;15.20;99.90
34147;DHT22;20423;49.448;9.056;2023-09-12T03:03:15;15.20;99.90
34147;DHT22;20423;49.448;9.056;2023-09-12T03:05:42;15.20;99.90
34147;DHT22;20423;49.448;9.056;2023-09-12T03:08:08;15.20;99.90
34147;DHT22;20423;49.448;9.056;2023-09-12T03:10:34;15.10;99.90
34147;DHT22;20423;49.448;9.056;2023-09-12T03:13:00;15.10;99.90
34147;DHT22;20423;49.448;9.056;2023-09-12T03:15:25;15.00;99.90
34147;DHT22;20423;49.448;9.056;2023-09-12T03:17:51;15.00;99.90
34147;DHT22;20423;49.448;9.056;2023-09-12T03:20:17;14.90;99.90
34147;DHT22;20423;49.448;9.056;2023-09-12T03:22:43;15.00;99.90
34147;DHT22;20423;49.448;9.056;2023-09-12T03:25:08;14.90;99.90
34147;DHT22;20423;49.448;9.056;2023-09-12T03:27:35;14.80;99.90
34147;DHT22;20423;49.448;9.056;2023-09-12T03:30:00;14.80;99.90
34147;DHT22;20423;49.448;9.056;2023-09-12T03:32:52;14.80;99.90
34147;DHT22;20423;49.448;9.056;2023-09-12T03:35:18;14.70;99.90
34147;DHT22;20423;49.448;9.056;2023-09-12T03:37:44;14.70;99.90
34147;DHT22;20423;49.448;9.056;2023-09-12T03:40:10;14.70;99.90
34147;DHT22;20423;49.448;9.056;2023-09-12T03:42:37;14.70;99.90
34147;DHT22;20423;49.448;9.056;2023-09-12T03:45:02;14.70;99.90
34147;DHT22;20423;49.448;9.056;2023-09-12T03:47:28;14.70;99.90
34147;DHT22;20423;49.448;9.056;2023-09-12T03:49:54;14.70;99.90
34147;DHT22;20423;49.448;9.056;2023-09-12T03:52:20;14.80;99.90
34147;DHT22;20423;49.448;9.056;2023-09-12T03:54:45;14.80;99.90
34147;DHT22;20423;49.448;9.056;2023-09-12T03:57:11;14.80;99.90
34147;DHT22;20423;49.448;9.056;2023-09-12T03:59:37;14.90;99.90
34147;DHT22;20423;49.448;9.056;2023-09-12T04:02:03;15.00;99.90
34147;DHT22;20423;49.448;9.056;2023-09-12T04:04:29;15.10;99.90
34147;DHT22;20423;49.448;9.056;2023-09-12T04:06:55;15.20;99.90
34147;DHT22;20423;49.448;9.056;2023-09-12T04:09:21;15.30;99.90
34147;DHT22;20423;49.448;9.056;2023-09-12T04:11:46;15.40;99.90
34147;DHT22;20423;49.448;9.056;2023-09-12T04:14:14;15.40;99.90
34147;DHT22;20423;49.448;9.056;2023-09-12T04:16:39;15.50;99.90
34147;DHT22;20423;49.448;9.056;2023-09-12T04:19:05;15.60;99.90
34147;DHT22;20423;49.448;9.056;2023-09-12T04:21:31;15.70;99.90
34147;DHT22;20423;49.448;9.056;2023-09-12T04:23:57;15.80;99.90
34147;DHT22;20423;49.448;9.056;2023-09-12T04:26:23;15.90;99.90
34147;DHT22;20423;49.448;9.056;2023-09-12T04:28:48;16.00;99.90
34147;DHT22;20423;49.448;9.056;2023-09-12T04:31:14;16.10;99.90
34147;DHT22;20423;49.448;9.056;2023-09-12T04:33:40;16.20;99.90
34147;DHT22;20423;49.448;9.056;2023-09-12T04:36:06;16.30;99.90
34147;DHT22;20423;49.448;9.056;2023-09-12T04:38:31;16.40;99.90
34147;DHT22;20423;49.448;9.056;2023-09-12T04:41:02;16.50;99.90
34147;DHT22;20423;49.448;9.056;2023-09-12T04:43:33;16.60;99.90
34147;DHT22;20423;49.448;9.056;2023-09-12T04:45:59;16.70;99.90
34147;DHT22;20423;49.448;9.056;2023-09-12T04:48:24;16.80;99.90
34147;DHT22;20423;49.448;9.056;2023-09-12T04:50:50;16.90;99.90
34147;DHT22;20423;49.448;9.056;2023-09-12T04:53:25;17.00;99.90
34147;DHT22;20423;49.448;9.056;2023-09-12T04:55:54;17.10;99.90
34147;DHT22;20423;49.448;9.056;2023-09-12T04:58:20;17.20;99.90
34147;DHT22;20423;49.448;9.056;2023-09-12T05:00:46;17.30;99.90
34147;DHT22;20423;49.448;9.056;2023-09-12T05:03:11;17.30;99.90
34147;DHT22;20423;49.448;9.056;2023-09-12T05:05:37;17.30;99.90
34147;DHT22;20423;49.448;9.056;2023-09-12T05:08:03;17.30;99.90
34147;DHT22;20423;49.448;9.056;2023-09-12T05:10:30;17.20;99.90
34147;DHT22;20423;49.448;9.056;2023-09-12T05:12:56;17.20;99.90
34147;DHT22;20423;49.448;9.056;2023-09-12T05:15:21;17.20;99.90
34147;DHT22;20423;49.448;9.056;2023-09-12T05:17:47;17.30;99.90
34147;DHT22;20423;49.448;9.056;2023-09-12T05:20:13;17.30;99.90
34147;DHT22;20423;49.448;9.056;2023-09-12T05:22:39;17.40;99.90
34147;DHT22;20423;49.448;9.056;2023-09-12T05:25:05;17.50;99.90
34147;DHT22;20423;49.448;9.056;2023-09-12T05:27:31;17.60;99.90
34147;DHT22;20423;49.448;9.056;2023-09-12T05:29:57;17.60;99.90
34147;DHT22;20423;49.448;9.056;2023-09-12T05:32:22;17.70;99.90
34147;DHT22;20423;49.448;9.056;2023-09-12T05:34:48;17.80;99.90
34147;DHT22;20423;49.448;9.056;2023-09-12T05:37:16;17.90;99.90
34147;DHT22;20423;49.448;9.056;2023-09-12T05:39:41;17.90;99.90
34147;DHT22;20423;49.448;9.056;2023-09-12T05:42:08;17.90;99.90
34147;DHT22;20423;49.448;9.056;2023-09-12T05:44:34;18.00;99.90
34147;DHT22;20423;49.448;9.056;2023-09-12T05:46:59;18.20;99.90
34147;DHT22;20423;49.448;9.056;2023-09-12T05:49:25;18.30;99.90
34147;DHT22;20423;49.448;9.056;2023-09-12T05:51:51;18.40;99.90
34147;DHT22;20423;49.448;9.056;2023-09-12T05:54:16;18.40;99.90
34147;DHT22;20423;49.448;9.056;2023-09-12T05:56:42;18.60;99.90
34147;DHT22;20423;49.448;9.056;2023-09-12T05:59:08;18.80;99.90
34147;DHT22;20423;49.448;9.056;2023-09-12T06:01:34;18.90;99.90
34147;DHT22;20423;49.448;9.056;2023-09-12T06:04:00;18.90;99.90
34147;DHT22;20423;49.448;9.056;2023-09-12T06:06:25;19.10;99.90
34147;DHT22;20423;49.448;9.056;2023-09-12T06:08:51;19.20;99.90
34147;DHT22;20423;49.448;9.056;2023-09-12T06:11:19;19.20;99.90
34147;DHT22;20423;49.448;9.056;2023-09-12T06:13:44;19.40;99.90
34147;DHT22;20423;49.448;9.056;2023-09-12T06:16:10;19.60;99.90
34147;DHT22;20423;49.448;9.056;2023-09-12T06:18:36;19.80;99.90
34147;DHT22;20423;49.448;9.056;2023-09-12T06:21:01;20.00;99.90
34147;DHT22;20423;49.448;9.056;2023-09-12T06:23:34;20.20;99.90
34147;DHT22;20423;49.448;9.056;2023-09-12T06:25:59;20.30;99.90
34147;DHT22;20423;49.448;9.056;2023-09-12T06:28:26;20.40;99.90
34147;DHT22;20423;49.448;9.056;2023-09-12T06:30:52;20.60;99.90
34147;DHT22;20423;49.448;9.056;2023-09-12T06:33:18;20.60;99.90
34147;DHT22;20423;49.448;9.056;2023-09-12T06:35:44;20.70;99.90
34147;DHT22;20423;49.448;9.056;2023-09-12T06:38:13;20.70;99.90
34147;DHT22;20423;49.448;9.056;2023-09-12T06:40:38;20.80;99.90
34147;DHT22;20423;49.448;9.056;2023-09-12T06:43:04;20.80;99.90
34147;DHT22;20423;49.448;9.056;2023-09-12T06:45:30;20.90;99.90
34147;DHT22;20423;49.448;9.056;2023-09-12T06:47:58;20.90;99.90
34147;DHT22;20423;49.448;9.056;2023-09-12T06:50:24;21.00;99.90
34147;DHT22;20423;49.448;9.056;2023-09-12T06:52:49;21.00;99.90
34147;DHT22;20423;49.448;9.056;2023-09-12T06:55:15;21.10;99.90
34147;DHT22;20423;49.448;9.056;2023-09-12T06:57:40;21.10;99.90
34147;DHT22;20423;49.448;9.056;2023-09-12T07:00:08;21.20;99.90
34147;DHT22;20423;49.448;9.056;2023-09-12T07:02:34;21.20;99.90
34147;DHT22;20423;49.448;9.056;2023-09-12T07:05:01;21.10;99.90
34147;DHT22;20423;49.448;9.056;2023-09-12T07:07:27;21.10;99.90
34147;DHT22;20423;49.448;9.056;2023-09-12T07:09:52;21.10;99.90
34147;DHT22;20423;49.448;9.056;2023-09-12T07:12:18;21.20;99.90
34147;DHT22;20423;49.448;9.056;2023-09-12T07:14:44;21.30;99.90
34147;DHT22;20423;49.448;9.056;2023-09-12T07:17:09;21.50;99.90
34147;DHT22;20423;49.448;9.056;2023-09-12T07:19:36;21.80;99.90
34147;DHT22;20423;49.448;9.056;2023-09-12T07:22:01;22.00;99.90
34147;DHT22;20423;49.448;9.056;2023-09-12T07:24:27;22.20;99.90
34147;DHT22;20423;49.448;9.056;2023-09-12T07:26:53;22.40;99.90
34147;DHT22;20423;49.448;9.056;2023-09-12T07:29:19;22.50;99.90
34147;DHT22;20423;49.448;9.056;2023-09-12T07:31:45;22.70;99.90
34147;DHT22;20423;49.448;9.056;2023-09-12T07:34:10;22.60;99.90
34147;DHT22;20423;49.448;9.056;2023-09-12T07:36:37;22.60;99.90
34147;DHT22;20423;49.448;9.056;2023-09-12T07:39:03;22.50;99.90
34147;DHT22;20423;49.448;9.056;2023-09-12T07:41:30;22.40;99.90
34147;DHT22;20423;49.448;9.056;2023-09-12T07:43:55;22.20;99.90
34147;DHT22;20423;49.448;9.056;2023-09-12T07:46:21;22.00;99.90
34147;DHT22;20423;49.448;9.056;2023-09-12T07:48:47;21.90;99.90
34147;DHT22;20423;49.448;9.056;2023-09-12T07:51:16;21.90;99.90
34147;DHT22;20423;49.448;9.056;2023-09-12T07:53:43;21.90;99.90
34147;DHT22;20423;49.448;9.056;2023-09-12T07:56:09;21.90;99.90
34147;DHT22;20423;49.448;9.056;2023-09-12T07:58:36;21.90;99.90
34147;DHT22;20423;49.448;9.056;2023-09-12T08:01:08;21.80;99.90
34147;DHT22;20423;49.448;9.056;2023-09-12T08:03:36;21.90;99.90
34147;DHT22;20423;49.448;9.056;2023-09-12T08:06:03;21.90;99.90
34147;DHT22;20423;49.448;9.056;2023-09-12T08:08:30;22.00;99.90
34147;DHT22;20423;49.448;9.056;2023-09-12T08:10:56;22.10;99.90
34147;DHT22;20423;49.448;9.056;2023-09-12T08:13:25;22.20;99.90
34147;DHT22;20423;49.448;9.056;2023-09-12T08:15:51;22.40;99.90
34147;DHT22;20423;49.448;9.056;2023-09-12T08:18:17;22.40;99.90
34147;DHT22;20423;49.448;9.056;2023-09-12T08:20:43;22.50;99.90
34147;DHT22;20423;49.448;9.056;2023-09-12T08:23:09;22.60;99.90
34147;DHT22;20423;49.448;9.056;2023-09-12T08:25:35;22.60;99.90
34147;DHT22;20423;49.448;9.056;2023-09-12T08:28:01;22.60;99.90
34147;DHT22;20423;49.448;9.056;2023-09-12T08:30:27;22.60;99.90
34147;DHT22;20423;49.448;9.056;2023-09-12T08:32:55;22.70;99.90
34147;DHT22;20423;49.448;9.056;2023-09-12T08:35:21;22.60;99.90
34147;DHT22;20423;49.448;9.056;2023-09-12T08:37:47;22.60;99.90
34147;DHT22;20423;49.448;9.056;2023-09-12T08:40:13;22.70;99.90
34147;DHT22;20423;49.448;9.056;2023-09-12T08:42:41;22.80;99.90
34147;DHT22;20423;49.448;9.056;2023-09-12T08:47:40;25.20;99.90
34147;DHT22;20423;49.448;9.056;2023-09-12T08:50:09;26.60;99.90
34147;DHT22;20423;49.448;9.056;2023-09-12T08:52:35;28.10;99.90
34147;DHT22;20423;49.448;9.056;2023-09-12T08:55:01;29.30;99.90
34147;DHT22;20423;49.448;9.056;2023-09-12T08:57:27;30.30;99.90
34147;DHT22;20423;49.448;9.056;2023-09-12T08:59:54;31.00;99.90
34147;DHT22;20423;49.448;9.056;2023-09-12T09:02:21;31.80;99.90
34147;DHT22;20423;49.448;9.056;2023-09-12T09:04:47;32.70;99.90
34147;DHT22;20423;49.448;9.056;2023-09-12T09:07:16;33.10;99.90
34147;DHT22;20423;49.448;9.056;2023-09-12T09:09:43;33.40;96.50
34147;DHT22;20423;49.448;9.056;2023-09-12T09:12:09;33.70;95.30
34147;DHT22;20423;49.448;9.056;2023-09-12T09:14:36;33.90;94.90
34147;DHT22;20423;49.448;9.056;2023-09-12T09:17:02;33.80;92.90
34147;DHT22;20423;49.448;9.056;2023-09-12T09:19:41;33.40;93.90
34147;DHT22;20423;49.448;9.056;2023-09-12T09:22:07;33.10;95.40
34147;DHT22;20423;49.448;9.056;2023-09-12T09:24:39;32.80;95.70
34147;DHT22;20423;49.448;9.056;2023-09-12T09:27:05;32.10;94.70
34147;DHT22;20423;49.448;9.056;2023-09-12T09:29:30;31.20;96.60
34147;DHT22;20423;49.448;9.056;2023-09-12T09:32:02;30.30;96.90
34147;DHT22;20423;49.448;9.056;2023-09-12T09:34:30;30.10;97.80
34147;DHT22;20423;49.448;9.056;2023-09-12T09:36:57;29.90;97.80
34147;DHT22;20423;49.448;9.056;2023-09-12T09:39:25;29.50;97.90
34147;DHT22;20423;49.448;9.056;2023-09-12T09:41:56;29.00;97.90
34147;DHT22;20423;49.448;9.056;2023-09-12T09:44:23;28.40;98.40
34147;DHT22;20423;49.448;9.056;2023-09-12T09:47:03;28.50;98.40
34147;DHT22;20423;49.448;9.056;2023-09-12T09:49:31;28.20;98.60
34147;DHT22;20423;49.448;9.056;2023-09-12T09:51:57;28.20;99.60
34147;DHT22;20423;49.448;9.056;2023-09-12T09:54:25;28.70;99.30
34147;DHT22;20423;49.448;9.056;2023-09-12T09:56:55;28.40;99.00
34147;DHT22;20423;49.448;9.056;2023-09-12T09:59:22;28.50;99.50
34147;DHT22;20423;49.448;9.056;2023-09-12T10:01:49;28.50;99.10
34147;DHT22;20423;49.448;9.056;2023-09-12T10:04:16;28.50;99.90
34147;DHT22;20423;49.448;9.056;2023-09-12T10:06:45;28.30;99.60
34147;DHT22;20423;49.448;9.056;2023-09-12T10:09:13;28.80;99.20
34147;DHT22;20423;49.448;9.056;2023-09-12T10:11:40;28.60;99.60
34147;DHT22;20423;49.448;9.056;2023-09-12T10:14:06;28.90;99.60
34147;DHT22;20423;49.448;9.056;2023-09-12T10:16:41;29.10;99.10
34147;DHT22;20423;49.448;9.056;2023-09-12T10:21:38;29.10;99.30
34147;DHT22;20423;49.448;9.056;2023-09-12T10:24:07;29.10;99.10
34147;DHT22;20423;49.448;9.056;2023-09-12T10:26:34;29.40;98.90
34147;DHT22;20423;49.448;9.056;2023-09-12T10:29:03;30.10;98.70
34147;DHT22;20423;49.448;9.056;2023-09-12T10:31:30;30.70;97.30
34147;DHT22;20423;49.448;9.056;2023-09-12T10:33:57;30.80;95.60
34147;DHT22;20423;49.448;9.056;2023-09-12T10:36:26;31.00;96.30
34147;DHT22;20423;49.448;9.056;2023-09-12T10:38:52;31.00;96.40
34147;DHT22;20423;49.448;9.056;2023-09-12T10:41:19;30.70;95.90
34147;DHT22;20423;49.448;9.056;2023-09-12T10:43:48;30.60;96.10
34147;DHT22;20423;49.448;9.056;2023-09-12T10:46:17;30.80;96.20
34147;DHT22;20423;49.448;9.056;2023-09-12T10:48:43;30.70;95.70
34147;DHT22;20423;49.448;9.056;2023-09-12T10:51:10;30.70;95.90
34147;DHT22;20423;49.448;9.056;2023-09-12T10:53:36;30.70;95.20
34147;DHT22;20423;49.448;9.056;2023-09-12T10:56:15;30.30;95.50
34147;DHT22;20423;49.448;9.056;2023-09-12T11:01:36;29.30;95.80
34147;DHT22;20423;49.448;9.056;2023-09-12T11:04:30;29.20;96.80
34147;DHT22;20423;49.448;9.056;2023-09-12T11:06:58;29.80;96.20
34147;DHT22;20423;49.448;9.056;2023-09-12T11:09:43;30.30;96.00
34147;DHT22;20423;49.448;9.056;2023-09-12T11:12:35;31.40;95.60
34147;DHT22;20423;49.448;9.056;2023-09-12T11:15:05;32.30;95.20
34147;DHT22;20423;49.448;9.056;2023-09-12T11:17:43;32.60;94.60
34147;DHT22;20423;49.448;9.056;2023-09-12T11:20:09;33.20;93.30
34147;DHT22;20423;49.448;9.056;2023-09-12T11:22:40;32.20;92.70
34147;DHT22;20423;49.448;9.056;2023-09-12T11:25:23;31.30;94.50
34147;DHT22;20423;49.448;9.056;2023-09-12T11:30:24;31.20;94.80
34147;DHT22;20423;49.448;9.056;2023-09-12T11:32:57;31.00;94.30
34147;DHT22;20423;49.448;9.056;2023-09-12T11:35:25;30.50;95.60
34147;DHT22;20423;49.448;9.056;2023-09-12T11:37:56;30.30;96.60
34147;DHT22;20423;49.448;9.056;2023-09-12T11:42:49;30.90;94.30
34147;DHT22;20423;49.448;9.056;2023-09-12T11:45:18;31.00;94.90
34147;DHT22;20423;49.448;9.056;2023-09-12T11:47:45;31.90;94.20
34147;DHT22;20423;49.448;9.056;2023-09-12T11:53:12;33.00;93.50
34147;DHT22;20423;49.448;9.056;2023-09-12T11:58:10;32.50;92.00
34147;DHT22;20423;49.448;9.056;2023-09-12T12:00:36;32.20;92.00
34147;DHT22;20423;49.448;9.056;2023-09-12T12:03:03;32.50;92.20
34147;DHT22;20423;49.448;9.056;2023-09-12T12:05:29;32.80;92.60
34147;DHT22;20423;49.448;9.056;2023-09-12T12:07:55;32.80;92.50
34147;DHT22;20423;49.448;9.056;2023-09-12T12:10:23;33.10;93.50
34147;DHT22;20423;49.448;9.056;2023-09-12T12:12:52;33.00;92.90
34147;DHT22;20423;49.448;9.056;2023-09-12T12:15:28;32.70;92.10
34147;DHT22;20423;49.448;9.056;2023-09-12T12:17:56;32.10;92.20
34147;DHT22;20423;49.448;9.056;2023-09-12T12:20:22;31.40;93.60
34147;DHT22;20423;49.448;9.056;2023-09-12T12:22:49;30.90;93.30
34147;DHT22;20423;49.448;9.056;2023-09-12T12:25:17;30.70;94.10
34147;DHT22;20423;49.448;9.056;2023-09-12T12:27:43;30.90;94.20
34147;DHT22;20423;49.448;9.056;2023-09-12T12:30:12;30.80;94.40
34147;DHT22;20423;49.448;9.056;2023-09-12T12:32:42;30.40;94.30
34147;DHT22;20423;49.448;9.056;2023-09-12T12:35:17;30.80;95.30
34147;DHT22;20423;49.448;9.056;2023-09-12T12:37:43;30.60;94.30
34147;DHT22;20423;49.448;9.056;2023-09-12T12:40:12;30.70;94.90
34147;DHT22;20423;49.448;9.056;2023-09-12T12:42:39;30.90;95.10
34147;DHT22;20423;49.448;9.056;2023-09-12T12:45:29;31.00;94.20
34147;DHT22;20423;49.448;9.056;2023-09-12T12:47:59;30.30;95.10
34147;DHT22;20423;49.448;9.056;2023-09-12T12:50:26;29.70;95.90
34147;DHT22;20423;49.448;9.056;2023-09-12T12:52:56;29.50;96.00
34147;DHT22;20423;49.448;9.056;2023-09-12T12:55:25;29.40;96.20
34147;DHT22;20423;49.448;9.056;2023-09-12T12:57:51;29.60;96.40
34147;DHT22;20423;49.448;9.056;2023-09-12T13:00:17;29.60;95.90
34147;DHT22;20423;49.448;9.056;2023-09-12T13:02:44;29.40;96.40
34147;DHT22;20423;49.448;9.056;2023-09-12T13:05:30;29.40;95.90
34147;DHT22;20423;49.448;9.056;2023-09-12T13:07:57;29.30;96.90
34147;DHT22;20423;49.448;9.056;2023-09-12T13:10:25;29.30;98.20
34147;DHT22;20423;49.448;9.056;2023-09-12T13:12:51;29.30;97.00
34147;DHT22;20423;49.448;9.056;2023-09-12T13:15:17;29.60;97.50
34147;DHT22;20423;49.448;9.056;2023-09-12T13:17:44;29.90;97.40
34147;DHT22;20423;49.448;9.056;2023-09-12T13:20:10;30.30;97.00
34147;DHT22;20423;49.448;9.056;2023-09-12T13:22:36;30.60;96.20
34147;DHT22;20423;49.448;9.056;2023-09-12T13:25:03;30.80;96.20
34147;DHT22;20423;49.448;9.056;2023-09-12T13:27:29;30.90;95.70
34147;DHT22;20423;49.448;9.056;2023-09-12T13:29:54;30.60;95.60
34147;DHT22;20423;49.448;9.056;2023-09-12T13:32:20;30.30;95.30
34147;DHT22;20423;49.448;9.056;2023-09-12T13:34:46;30.10;95.90
34147;DHT22;20423;49.448;9.056;2023-09-12T13:37:12;29.90;95.90
34147;DHT22;20423;49.448;9.056;2023-09-12T13:39:37;29.50;96.40
34147;DHT22;20423;49.448;9.056;2023-09-12T13:42:06;29.40;96.90
34147;DHT22;20423;49.448;9.056;2023-09-12T13:44:33;29.40;97.20
34147;DHT22;20423;49.448;9.056;2023-09-12T13:46:59;29.10;97.00
34147;DHT22;20423;49.448;9.056;2023-09-12T13:49:25;28.90;98.20
34147;DHT22;20423;49.448;9.056;2023-09-12T13:51:50;28.70;98.30
34147;DHT22;20423;49.448;9.056;2023-09-12T13:54:16;28.70;97.90
34147;DHT22;20423;49.448;9.056;2023-09-12T13:56:42;28.50;98.00
34147;DHT22;20423;49.448;9.056;2023-09-12T13:59:07;28.50;99.00
34147;DHT22;20423;49.448;9.056;2023-09-12T14:01:33;28.40;99.10
34147;DHT22;20423;49.448;9.056;2023-09-12T14:03:59;28.20;99.00
34147;DHT22;20423;49.448;9.056;2023-09-12T14:06:25;28.20;99.00
34147;DHT22;20423;49.448;9.056;2023-09-12T14:08:52;28.10;98.70
34147;DHT22;20423;49.448;9.056;2023-09-12T14:11:18;28.10;99.40
34147;DHT22;20423;49.448;9.056;2023-09-12T14:13:43;28.00;99.20
34147;DHT22;20423;49.448;9.056;2023-09-12T14:16:09;28.00;99.00
34147;DHT22;20423;49.448;9.056;2023-09-12T14:18:35;28.00;99.90
34147;DHT22;20423;49.448;9.056;2023-09-12T14:21:00;28.00;99.90
34147;DHT22;20423;49.448;9.056;2023-09-12T14:23:26;28.00;99.90
34147;DHT22;20423;49.448;9.056;2023-09-12T14:25:52;28.10;99.90
34147;DHT22;20423;49.448;9.056;2023-09-12T14:28:18;28.10;98.60
34147;DHT22;20423;49.448;9.056;2023-09-12T14:30:43;28.10;99.00
34147;DHT22;20423;49.448;9.056;2023-09-12T14:33:13;28.00;98.10
34147;DHT22;20423;49.448;9.056;2023-09-12T14:35:40;28.00;98.70
34147;DHT22;20423;49.448;9.056;2023-09-12T14:38:06;28.00;98.50
34147;DHT22;20423;49.448;9.056;2023-09-12T14:40:32;28.00;99.20
34147;DHT22;20423;49.448;9.056;2023-09-12T14:42:57;28.00;99.40
34147;DHT22;20423;49.448;9.056;2023-09-12T14:45:23;28.00;99.10
34147;DHT22;20423;49.448;9.056;2023-09-12T14:47:51;27.90;99.60
34147;DHT22;20423;49.448;9.056;2023-09-12T14:50:16;27.90;99.50
34147;DHT22;20423;49.448;9.056;2023-09-12T14:52:42;27.80;99.20
34147;DHT22;20423;49.448;9.056;2023-09-12T14:55:10;27.60;98.90
34147;DHT22;20423;49.448;9.056;2023-09-12T14:57:37;27.60;98.00
34147;DHT22;20423;49.448;9.056;2023-09-12T15:00:03;27.60;99.00
34147;DHT22;20423;49.448;9.056;2023-09-12T15:02:29;27.80;99.90
34147;DHT22;20423;49.448;9.056;2023-09-12T15:05:01;27.80;99.50
34147;DHT22;20423;49.448;9.056;2023-09-12T15:07:28;28.00;98.80
34147;DHT22;20423;49.448;9.056;2023-09-12T15:09:57;28.00;98.70
34147;DHT22;20423;49.448;9.056;2023-09-12T15:12:23;28.20;99.90
34147;DHT22;20423;49.448;9.056;2023-09-12T15:14:50;28.30;99.90
34147;DHT22;20423;49.448;9.056;2023-09-12T15:17:17;28.20;99.90
34147;DHT22;20423;49.448;9.056;2023-09-12T15:19:42;28.20;99.90
34147;DHT22;20423;49.448;9.056;2023-09-12T15:22:08;28.30;99.90
34147;DHT22;20423;49.448;9.056;2023-09-12T15:24:34;28.30;99.90
34147;DHT22;20423;49.448;9.056;2023-09-12T15:26:59;28.30;99.90
34147;DHT22;20423;49.448;9.056;2023-09-12T15:29:25;28.30;99.90
34147;DHT22;20423;49.448;9.056;2023-09-12T15:31:51;28.50;99.40
34147;DHT22;20423;49.448;9.056;2023-09-12T15:34:16;28.40;99.90
34147;DHT22;20423;49.448;9.056;2023-09-12T15:36:46;28.40;99.90
34147;DHT22;20423;49.448;9.056;2023-09-12T15:39:13;28.50;99.20
34147;DHT22;20423;49.448;9.056;2023-09-12T15:41:39;28.50;98.00
34147;DHT22;20423;49.448;9.056;2023-09-12T15:44:05;28.70;98.40
34147;DHT22;20423;49.448;9.056;2023-09-12T15:46:31;28.60;99.50
34147;DHT22;20423;49.448;9.056;2023-09-12T15:48:57;28.40;99.60
34147;DHT22;20423;49.448;9.056;2023-09-12T15:51:23;28.30;99.70
34147;DHT22;20423;49.448;9.056;2023-09-12T15:53:49;28.20;99.50
34147;DHT22;20423;49.448;9.056;2023-09-12T15:56:15;27.90;98.90
34147;DHT22;20423;49.448;9.056;2023-09-12T15:58:41;28.00;99.50
34147;DHT22;20423;49.448;9.056;2023-09-12T16:01:07;28.30;99.30